sensor_id;sensor_type;location;lat;lon;timestamp;P1;durP1;ratioP1;P2;durP2;ratioP2
42614;SDS011;28754;47.700;7.924;2023-11-21T00:00:45;5.70;;;1.67;;
42614;SDS011;28754;47.700;7.924;2023-11-21T00:03:32;12.98;;;2.22;;
42614;SDS011;28754;47.700;7.924;2023-11-21T00:06:18;4.03;;;1.40;;
42614;SDS011;28754;47.700;7.924;2023-11-21T00:09:06;8.38;;;1.88;;
42614;SDS011;28754;47.700;7.924;2023-11-21T00:11:54;9.43;;;1.90;;
42614;SDS011;28754;47.700;7.924;2023-11-21T00:14:41;8.27;;;2.20;;
42614;SDS011;28754;47.700;7.924;2023-11-21T00:17:28;4.40;;;1.10;;
42614;SDS011;28754;47.700;7.924;2023-11-21T00:20:14;5.20;;;2.10;;
42614;SDS011;28754;47.700;7.924;2023-11-21T00:23:01;8.70;;;1.42;;
42614;SDS011;28754;47.700;7.924;2023-11-21T00:25:48;3.92;;;1.10;;
42614;SDS011;28754;47.700;7.924;2023-11-21T00:28:35;5.50;;;1.40;;
42614;SDS011;28754;47.700;7.924;2023-11-21T00:31:22;6.85;;;1.48;;
42614;SDS011;28754;47.700;7.924;2023-11-21T00:34:08;6.53;;;1.60;;
42614;SDS011;28754;47.700;7.924;2023-11-21T00:36:55;12.68;;;2.42;;
42614;SDS011;28754;47.700;7.924;2023-11-21T00:39:42;4.05;;;1.10;;
42614;SDS011;28754;47.700;7.924;2023-11-21T00:42:28;3.58;;;1.02;;
42614;SDS011;28754;47.700;7.924;2023-11-21T00:45:15;7.35;;;1.30;;
42614;SDS011;28754;47.700;7.924;2023-11-21T00:48:02;5.70;;;1.90;;
42614;SDS011;28754;47.700;7.924;2023-11-21T00:50:50;4.93;;;1.00;;
42614;SDS011;28754;47.700;7.924;2023-11-21T00:53:37;3.28;;;0.80;;
42614;SDS011;28754;47.700;7.924;2023-11-21T00:56:24;4.72;;;1.60;;
42614;SDS011;28754;47.700;7.924;2023-11-21T00:59:10;3.63;;;1.13;;
42614;SDS011;28754;47.700;7.924;2023-11-21T01:01:57;2.60;;;0.93;;
42614;SDS011;28754;47.700;7.924;2023-11-21T01:04:46;4.35;;;0.85;;
42614;SDS011;28754;47.700;7.924;2023-11-21T01:07:33;1.42;;;0.82;;
42614;SDS011;28754;47.700;7.924;2023-11-21T01:10:20;3.80;;;0.65;;
42614;SDS011;28754;47.700;7.924;2023-11-21T01:13:07;2.65;;;0.85;;
42614;SDS011;28754;47.700;7.924;2023-11-21T01:15:54;2.85;;;0.30;;
42614;SDS011;28754;47.700;7.924;2023-11-21T01:18:41;3.83;;;0.75;;
42614;SDS011;28754;47.700;7.924;2023-11-21T01:21:28;1.60;;;0.73;;
42614;SDS011;28754;47.700;7.924;2023-11-21T01:24:15;4.00;;;0.60;;
42614;SDS011;28754;47.700;7.924;2023-11-21T01:27:02;2.72;;;0.70;;
42614;SDS011;28754;47.700;7.924;2023-11-21T01:29:50;3.00;;;0.60;;
42614;SDS011;28754;47.700;7.924;2023-11-21T01:32:39;4.10;;;0.68;;
42614;SDS011;28754;47.700;7.924;2023-11-21T01:35:26;4.20;;;0.77;;
42614;SDS011;28754;47.700;7.924;2023-11-21T01:38:13;1.30;;;0.45;;
42614;SDS011;28754;47.700;7.924;2023-11-21T01:41:01;6.00;;;0.60;;
42614;SDS011;28754;47.700;7.924;2023-11-21T01:43:47;6.05;;;0.75;;
42614;SDS011;28754;47.700;7.924;2023-11-21T01:46:34;4.68;;;0.73;;
42614;SDS011;28754;47.700;7.924;2023-11-21T01:49:23;2.03;;;0.60;;
42614;SDS011;28754;47.700;7.924;2023-11-21T01:52:10;1.67;;;0.40;;
42614;SDS011;28754;47.700;7.924;2023-11-21T01:54:58;1.65;;;0.85;;
42614;SDS011;28754;47.700;7.924;2023-11-21T01:57:46;5.05;;;0.70;;
42614;SDS011;28754;47.700;7.924;2023-11-21T02:00:34;3.08;;;0.65;;
42614;SDS011;28754;47.700;7.924;2023-11-21T02:03:21;3.53;;;1.27;;
42614;SDS011;28754;47.700;7.924;2023-11-21T02:06:08;3.30;;;0.73;;
42614;SDS011;28754;47.700;7.924;2023-11-21T02:08:55;3.60;;;0.70;;
42614;SDS011;28754;47.700;7.924;2023-11-21T02:11:41;2.53;;;1.02;;
42614;SDS011;28754;47.700;7.924;2023-11-21T02:14:28;1.15;;;0.73;;
42614;SDS011;28754;47.700;7.924;2023-11-21T02:17:15;7.88;;;0.98;;
42614;SDS011;28754;47.700;7.924;2023-11-21T02:20:02;5.82;;;0.90;;
42614;SDS011;28754;47.700;7.924;2023-11-21T02:25:43;12.80;;;1.52;;
42614;SDS011;28754;47.700;7.924;2023-11-21T02:28:30;8.93;;;1.63;;
42614;SDS011;28754;47.700;7.924;2023-11-21T02:31:17;2.63;;;0.70;;
42614;SDS011;28754;47.700;7.924;2023-11-21T02:34:04;3.47;;;0.90;;
42614;SDS011;28754;47.700;7.924;2023-11-21T02:36:51;5.03;;;0.85;;
42614;SDS011;28754;47.700;7.924;2023-11-21T02:39:38;2.25;;;0.70;;
42614;SDS011;28754;47.700;7.924;2023-11-21T02:42:25;9.90;;;1.67;;
42614;SDS011;28754;47.700;7.924;2023-11-21T02:45:12;0.80;;;0.47;;
42614;SDS011;28754;47.700;7.924;2023-11-21T02:48:02;4.32;;;1.17;;
42614;SDS011;28754;47.700;7.924;2023-11-21T02:50:51;2.35;;;0.77;;
42614;SDS011;28754;47.700;7.924;2023-11-21T02:53:39;0.82;;;0.60;;
42614;SDS011;28754;47.700;7.924;2023-11-21T02:56:26;2.83;;;0.50;;
42614;SDS011;28754;47.700;7.924;2023-11-21T03:03:04;5.25;;;0.93;;
42614;SDS011;28754;47.700;7.924;2023-11-21T03:05:50;5.82;;;0.90;;
42614;SDS011;28754;47.700;7.924;2023-11-21T03:08:37;3.67;;;0.60;;
42614;SDS011;28754;47.700;7.924;2023-11-21T03:11:24;4.88;;;1.00;;
42614;SDS011;28754;47.700;7.924;2023-11-21T03:14:10;1.52;;;0.73;;
42614;SDS011;28754;47.700;7.924;2023-11-21T03:16:57;15.75;;;1.50;;
42614;SDS011;28754;47.700;7.924;2023-11-21T03:19:44;26.23;;;2.53;;
42614;SDS011;28754;47.700;7.924;2023-11-21T03:22:30;31.95;;;2.88;;
42614;SDS011;28754;47.700;7.924;2023-11-21T03:25:18;11.52;;;1.50;;
42614;SDS011;28754;47.700;7.924;2023-11-21T03:28:05;30.63;;;2.83;;
42614;SDS011;28754;47.700;7.924;2023-11-21T03:30:52;0.40;;;0.30;;
42614;SDS011;28754;47.700;7.924;2023-11-21T03:33:38;70.13;;;4.68;;
42614;SDS011;28754;47.700;7.924;2023-11-21T03:36:25;0.75;;;0.30;;
42614;SDS011;28754;47.700;7.924;2023-11-21T03:39:12;2.28;;;0.40;;
42614;SDS011;28754;47.700;7.924;2023-11-21T03:41:59;0.30;;;0.30;;
42614;SDS011;28754;47.700;7.924;2023-11-21T03:44:46;4.68;;;0.50;;
42614;SDS011;28754;47.700;7.924;2023-11-21T03:47:33;6.18;;;0.82;;
42614;SDS011;28754;47.700;7.924;2023-11-21T03:50:20;14.95;;;1.33;;
42614;SDS011;28754;47.700;7.924;2023-11-21T03:53:07;50.47;;;3.40;;
42614;SDS011;28754;47.700;7.924;2023-11-21T03:55:54;62.17;;;4.85;;
42614;SDS011;28754;47.700;7.924;2023-11-21T03:58:40;3.80;;;0.65;;
42614;SDS011;28754;47.700;7.924;2023-11-21T04:01:27;40.00;;;2.70;;
42614;SDS011;28754;47.700;7.924;2023-11-21T04:04:14;104.82;;;9.25;;
42614;SDS011;28754;47.700;7.924;2023-11-21T04:07:00;153.73;;;10.85;;
42614;SDS011;28754;47.700;7.924;2023-11-21T04:09:47;80.63;;;5.40;;
42614;SDS011;28754;47.700;7.924;2023-11-21T04:12:34;132.85;;;9.15;;
42614;SDS011;28754;47.700;7.924;2023-11-21T04:15:22;162.85;;;9.13;;
42614;SDS011;28754;47.700;7.924;2023-11-21T04:18:09;48.72;;;3.22;;
42614;SDS011;28754;47.700;7.924;2023-11-21T04:20:56;149.88;;;9.70;;
42614;SDS011;28754;47.700;7.924;2023-11-21T04:23:42;211.00;;;15.02;;
42614;SDS011;28754;47.700;7.924;2023-11-21T04:26:29;110.18;;;9.07;;
42614;SDS011;28754;47.700;7.924;2023-11-21T04:29:16;152.35;;;10.63;;
42614;SDS011;28754;47.700;7.924;2023-11-21T04:32:02;248.55;;;15.50;;
42614;SDS011;28754;47.700;7.924;2023-11-21T04:34:50;179.70;;;10.55;;
42614;SDS011;28754;47.700;7.924;2023-11-21T04:37:36;94.55;;;7.78;;
42614;SDS011;28754;47.700;7.924;2023-11-21T04:40:23;286.95;;;13.90;;
42614;SDS011;28754;47.700;7.924;2023-11-21T04:43:09;156.63;;;9.40;;
42614;SDS011;28754;47.700;7.924;2023-11-21T04:45:56;298.75;;;18.92;;
42614;SDS011;28754;47.700;7.924;2023-11-21T04:48:43;179.93;;;10.88;;
42614;SDS011;28754;47.700;7.924;2023-11-21T04:51:30;215.95;;;12.55;;
42614;SDS011;28754;47.700;7.924;2023-11-21T04:54:18;255.48;;;15.15;;
42614;SDS011;28754;47.700;7.924;2023-11-21T04:57:05;306.98;;;16.65;;
42614;SDS011;28754;47.700;7.924;2023-11-21T04:59:53;208.77;;;12.60;;
42614;SDS011;28754;47.700;7.924;2023-11-21T05:02:40;233.05;;;11.73;;
42614;SDS011;28754;47.700;7.924;2023-11-21T05:05:30;173.38;;;10.10;;
42614;SDS011;28754;47.700;7.924;2023-11-21T05:08:17;185.70;;;8.13;;
42614;SDS011;28754;47.700;7.924;2023-11-21T05:11:04;215.38;;;11.30;;
42614;SDS011;28754;47.700;7.924;2023-11-21T05:13:53;255.93;;;13.85;;
42614;SDS011;28754;47.700;7.924;2023-11-21T05:16:41;203.05;;;12.10;;
42614;SDS011;28754;47.700;7.924;2023-11-21T05:19:28;215.13;;;13.02;;
42614;SDS011;28754;47.700;7.924;2023-11-21T05:22:15;210.15;;;11.57;;
42614;SDS011;28754;47.700;7.924;2023-11-21T05:25:02;274.67;;;12.43;;
42614;SDS011;28754;47.700;7.924;2023-11-21T05:27:49;309.83;;;17.45;;
42614;SDS011;28754;47.700;7.924;2023-11-21T05:30:36;243.93;;;13.55;;
42614;SDS011;28754;47.700;7.924;2023-11-21T05:33:24;182.75;;;9.20;;
42614;SDS011;28754;47.700;7.924;2023-11-21T05:36:11;218.13;;;10.05;;
42614;SDS011;28754;47.700;7.924;2023-11-21T05:38:58;168.10;;;8.82;;
42614;SDS011;28754;47.700;7.924;2023-11-21T05:41:44;247.95;;;15.88;;
42614;SDS011;28754;47.700;7.924;2023-11-21T05:44:31;190.38;;;9.52;;
42614;SDS011;28754;47.700;7.924;2023-11-21T05:47:18;187.75;;;9.80;;
42614;SDS011;28754;47.700;7.924;2023-11-21T05:50:05;167.13;;;8.05;;
42614;SDS011;28754;47.700;7.924;2023-11-21T05:52:55;182.68;;;8.88;;
42614;SDS011;28754;47.700;7.924;2023-11-21T05:55:43;172.20;;;9.48;;
42614;SDS011;28754;47.700;7.924;2023-11-21T05:58:29;217.45;;;8.40;;
42614;SDS011;28754;47.700;7.924;2023-11-21T06:01:16;169.15;;;8.30;;
42614;SDS011;28754;47.700;7.924;2023-11-21T06:04:03;221.05;;;9.55;;
42614;SDS011;28754;47.700;7.924;2023-11-21T06:06:51;172.48;;;7.68;;
42614;SDS011;28754;47.700;7.924;2023-11-21T06:09:38;213.48;;;9.40;;
42614;SDS011;28754;47.700;7.924;2023-11-21T06:12:25;165.98;;;7.75;;
42614;SDS011;28754;47.700;7.924;2023-11-21T06:15:12;192.90;;;9.10;;
42614;SDS011;28754;47.700;7.924;2023-11-21T06:17:59;168.07;;;8.05;;
42614;SDS011;28754;47.700;7.924;2023-11-21T06:20:46;147.90;;;9.02;;
42614;SDS011;28754;47.700;7.924;2023-11-21T06:23:33;129.98;;;6.95;;
42614;SDS011;28754;47.700;7.924;2023-11-21T06:26:19;130.73;;;8.30;;
42614;SDS011;28754;47.700;7.924;2023-11-21T06:29:06;158.90;;;8.45;;
42614;SDS011;28754;47.700;7.924;2023-11-21T06:31:53;236.57;;;11.68;;
42614;SDS011;28754;47.700;7.924;2023-11-21T06:34:40;179.38;;;11.73;;
42614;SDS011;28754;47.700;7.924;2023-11-21T06:37:28;211.32;;;10.70;;
42614;SDS011;28754;47.700;7.924;2023-11-21T06:40:16;145.23;;;7.57;;
42614;SDS011;28754;47.700;7.924;2023-11-21T06:43:04;99.90;;;7.13;;
42614;SDS011;28754;47.700;7.924;2023-11-21T06:45:52;104.47;;;6.05;;
42614;SDS011;28754;47.700;7.924;2023-11-21T06:48:42;64.60;;;4.28;;
42614;SDS011;28754;47.700;7.924;2023-11-21T06:51:29;165.40;;;13.70;;
42614;SDS011;28754;47.700;7.924;2023-11-21T06:54:15;72.57;;;4.93;;
42614;SDS011;28754;47.700;7.924;2023-11-21T06:57:02;72.07;;;7.60;;
42614;SDS011;28754;47.700;7.924;2023-11-21T06:59:49;53.85;;;4.10;;
42614;SDS011;28754;47.700;7.924;2023-11-21T07:02:38;131.45;;;7.05;;
42614;SDS011;28754;47.700;7.924;2023-11-21T07:05:25;104.05;;;6.85;;
42614;SDS011;28754;47.700;7.924;2023-11-21T07:08:12;78.53;;;4.72;;
42614;SDS011;28754;47.700;7.924;2023-11-21T07:10:58;48.40;;;3.95;;
42614;SDS011;28754;47.700;7.924;2023-11-21T07:13:45;56.38;;;3.63;;
42614;SDS011;28754;47.700;7.924;2023-11-21T07:16:32;85.57;;;8.93;;
42614;SDS011;28754;47.700;7.924;2023-11-21T07:19:23;94.72;;;6.95;;
42614;SDS011;28754;47.700;7.924;2023-11-21T07:22:10;115.45;;;9.85;;
42614;SDS011;28754;47.700;7.924;2023-11-21T07:24:57;101.22;;;6.45;;
42614;SDS011;28754;47.700;7.924;2023-11-21T07:27:43;44.08;;;3.58;;
42614;SDS011;28754;47.700;7.924;2023-11-21T07:30:30;66.93;;;4.63;;
42614;SDS011;28754;47.700;7.924;2023-11-21T07:33:18;82.90;;;6.65;;
42614;SDS011;28754;47.700;7.924;2023-11-21T07:36:05;24.35;;;2.33;;
42614;SDS011;28754;47.700;7.924;2023-11-21T07:38:52;2.72;;;1.27;;
42614;SDS011;28754;47.700;7.924;2023-11-21T07:41:39;27.27;;;3.83;;
42614;SDS011;28754;47.700;7.924;2023-11-21T07:44:30;15.20;;;2.38;;
42614;SDS011;28754;47.700;7.924;2023-11-21T07:47:17;61.67;;;5.88;;
42614;SDS011;28754;47.700;7.924;2023-11-21T07:50:04;108.13;;;10.88;;
42614;SDS011;28754;47.700;7.924;2023-11-21T07:52:53;105.93;;;6.50;;
42614;SDS011;28754;47.700;7.924;2023-11-21T07:55:40;239.80;;;16.73;;
42614;SDS011;28754;47.700;7.924;2023-11-21T07:58:27;202.63;;;11.13;;
42614;SDS011;28754;47.700;7.924;2023-11-21T08:01:14;100.82;;;6.35;;
42614;SDS011;28754;47.700;7.924;2023-11-21T08:04:00;55.65;;;3.78;;
42614;SDS011;28754;47.700;7.924;2023-11-21T08:06:49;1.40;;;1.02;;
42614;SDS011;28754;47.700;7.924;2023-11-21T08:09:35;1.65;;;1.20;;
42614;SDS011;28754;47.700;7.924;2023-11-21T08:12:22;1.60;;;0.80;;
42614;SDS011;28754;47.700;7.924;2023-11-21T08:15:09;0.85;;;0.60;;
42614;SDS011;28754;47.700;7.924;2023-11-21T08:17:56;0.95;;;0.77;;
42614;SDS011;28754;47.700;7.924;2023-11-21T08:20:44;0.93;;;0.80;;
42614;SDS011;28754;47.700;7.924;2023-11-21T08:23:34;0.90;;;0.40;;
42614;SDS011;28754;47.700;7.924;2023-11-21T08:26:24;0.55;;;0.30;;
42614;SDS011;28754;47.700;7.924;2023-11-21T08:29:10;0.45;;;0.30;;
42614;SDS011;28754;47.700;7.924;2023-11-21T08:31:57;0.28;;;0.28;;
42614;SDS011;28754;47.700;7.924;2023-11-21T08:34:45;0.68;;;0.50;;
42614;SDS011;28754;47.700;7.924;2023-11-21T08:37:34;0.20;;;0.20;;
42614;SDS011;28754;47.700;7.924;2023-11-21T08:40:24;0.28;;;0.20;;
42614;SDS011;28754;47.700;7.924;2023-11-21T08:43:11;0.50;;;0.40;;
42614;SDS011;28754;47.700;7.924;2023-11-21T08:45:59;0.38;;;0.30;;
42614;SDS011;28754;47.700;7.924;2023-11-21T08:48:46;0.28;;;0.20;;
42614;SDS011;28754;47.700;7.924;2023-11-21T08:51:38;0.93;;;0.13;;
42614;SDS011;28754;47.700;7.924;2023-11-21T08:54:25;0.40;;;0.40;;
42614;SDS011;28754;47.700;7.924;2023-11-21T08:57:12;0.35;;;0.20;;
42614;SDS011;28754;47.700;7.924;2023-11-21T08:59:59;1.45;;;0.30;;
42614;SDS011;28754;47.700;7.924;2023-11-21T09:02:46;0.75;;;0.60;;
42614;SDS011;28754;47.700;7.924;2023-11-21T09:05:32;0.32;;;0.32;;
42614;SDS011;28754;47.700;7.924;2023-11-21T09:08:19;0.93;;;0.70;;
42614;SDS011;28754;47.700;7.924;2023-11-21T09:11:07;0.93;;;0.43;;
42614;SDS011;28754;47.700;7.924;2023-11-21T09:13:54;0.52;;;0.40;;
42614;SDS011;28754;47.700;7.924;2023-11-21T09:16:41;0.85;;;0.30;;
42614;SDS011;28754;47.700;7.924;2023-11-21T09:19:29;0.50;;;0.40;;
42614;SDS011;28754;47.700;7.924;2023-11-21T09:22:16;0.65;;;0.30;;
42614;SDS011;28754;47.700;7.924;2023-11-21T09:25:03;0.20;;;0.20;;
42614;SDS011;28754;47.700;7.924;2023-11-21T09:27:51;0.57;;;0.38;;
42614;SDS011;28754;47.700;7.924;2023-11-21T09:30:37;0.43;;;0.43;;
42614;SDS011;28754;47.700;7.924;2023-11-21T09:33:24;0.28;;;0.28;;
42614;SDS011;28754;47.700;7.924;2023-11-21T09:36:11;0.93;;;0.50;;
42614;SDS011;28754;47.700;7.924;2023-11-21T09:39:01;0.68;;;0.40;;
42614;SDS011;28754;47.700;7.924;2023-11-21T09:41:52;0.47;;;0.30;;
42614;SDS011;28754;47.700;7.924;2023-11-21T09:50:43;0.45;;;0.40;;
42614;SDS011;28754;47.700;7.924;2023-11-21T09:53:33;1.20;;;0.73;;
42614;SDS011;28754;47.700;7.924;2023-11-21T09:56:21;1.13;;;0.63;;
42614;SDS011;28754;47.700;7.924;2023-11-21T09:59:11;0.77;;;0.40;;
42614;SDS011;28754;47.700;7.924;2023-11-21T10:02:01;1.10;;;0.73;;
42614;SDS011;28754;47.700;7.924;2023-11-21T10:04:51;0.45;;;0.43;;
42614;SDS011;28754;47.700;7.924;2023-11-21T10:07:39;1.58;;;0.60;;
42614;SDS011;28754;47.700;7.924;2023-11-21T10:10:29;0.60;;;0.60;;
42614;SDS011;28754;47.700;7.924;2023-11-21T10:13:20;0.50;;;0.50;;
42614;SDS011;28754;47.700;7.924;2023-11-21T10:16:07;0.95;;;0.60;;
42614;SDS011;28754;47.700;7.924;2023-11-21T10:19:00;0.63;;;0.60;;
42614;SDS011;28754;47.700;7.924;2023-11-21T10:21:47;0.85;;;0.73;;
42614;SDS011;28754;47.700;7.924;2023-11-21T10:24:34;2.33;;;0.60;;
42614;SDS011;28754;47.700;7.924;2023-11-21T10:27:22;0.63;;;0.32;;
42614;SDS011;28754;47.700;7.924;2023-11-21T10:30:13;0.50;;;0.50;;
42614;SDS011;28754;47.700;7.924;2023-11-21T10:33:02;0.45;;;0.45;;
42614;SDS011;28754;47.700;7.924;2023-11-21T10:35:57;0.60;;;0.60;;
42614;SDS011;28754;47.700;7.924;2023-11-21T10:38:43;1.02;;;0.43;;
42614;SDS011;28754;47.700;7.924;2023-11-21T10:41:31;0.98;;;0.55;;
42614;SDS011;28754;47.700;7.924;2023-11-21T10:44:18;0.60;;;0.60;;
42614;SDS011;28754;47.700;7.924;2023-11-21T10:47:10;0.63;;;0.50;;
42614;SDS011;28754;47.700;7.924;2023-11-21T10:49:57;0.90;;;0.60;;
42614;SDS011;28754;47.700;7.924;2023-11-21T10:52:47;0.55;;;0.40;;
42614;SDS011;28754;47.700;7.924;2023-11-21T10:55:33;0.68;;;0.40;;
42614;SDS011;28754;47.700;7.924;2023-11-21T10:58:20;0.50;;;0.50;;
42614;SDS011;28754;47.700;7.924;2023-11-21T11:01:07;1.40;;;0.30;;
42614;SDS011;28754;47.700;7.924;2023-11-21T11:03:57;0.43;;;0.32;;
42614;SDS011;28754;47.700;7.924;2023-11-21T11:06:57;1.90;;;0.63;;
42614;SDS011;28754;47.700;7.924;2023-11-21T11:09:49;0.22;;;0.22;;
42614;SDS011;28754;47.700;7.924;2023-11-21T11:12:36;1.17;;;0.52;;
42614;SDS011;28754;47.700;7.924;2023-11-21T11:15:24;0.95;;;0.40;;
42614;SDS011;28754;47.700;7.924;2023-11-21T11:18:12;0.60;;;0.50;;
42614;SDS011;28754;47.700;7.924;2023-11-21T11:33:53;0.50;;;0.43;;
42614;SDS011;28754;47.700;7.924;2023-11-21T11:37:24;0.32;;;0.32;;
42614;SDS011;28754;47.700;7.924;2023-11-21T11:40:05;1.75;;;0.40;;
42614;SDS011;28754;47.700;7.924;2023-11-21T11:42:56;0.30;;;0.30;;
42614;SDS011;28754;47.700;7.924;2023-11-21T11:45:50;1.20;;;0.30;;
42614;SDS011;28754;47.700;7.924;2023-11-21T11:48:39;0.73;;;0.22;;
42614;SDS011;28754;47.700;7.924;2023-11-21T11:51:26;0.50;;;0.40;;
42614;SDS011;28754;47.700;7.924;2023-11-21T11:54:13;0.55;;;0.50;;
42614;SDS011;28754;47.700;7.924;2023-11-21T11:56:59;0.47;;;0.40;;
42614;SDS011;28754;47.700;7.924;2023-11-21T12:03:02;0.73;;;0.40;;
42614;SDS011;28754;47.700;7.924;2023-11-21T12:05:51;0.30;;;0.25;;
42614;SDS011;28754;47.700;7.924;2023-11-21T12:08:44;0.20;;;0.20;;
42614;SDS011;28754;47.700;7.924;2023-11-21T12:11:31;0.10;;;0.10;;
42614;SDS011;28754;47.700;7.924;2023-11-21T12:14:18;0.30;;;0.30;;
42614;SDS011;28754;47.700;7.924;2023-11-21T12:17:05;0.60;;;0.38;;
42614;SDS011;28754;47.700;7.924;2023-11-21T12:19:51;0.82;;;0.30;;
42614;SDS011;28754;47.700;7.924;2023-11-21T12:22:38;0.90;;;0.47;;
42614;SDS011;28754;47.700;7.924;2023-11-21T12:25:47;0.85;;;0.32;;
42614;SDS011;28754;47.700;7.924;2023-11-21T12:28:34;0.60;;;0.40;;
42614;SDS011;28754;47.700;7.924;2023-11-21T12:31:24;1.80;;;0.20;;
42614;SDS011;28754;47.700;7.924;2023-11-21T12:34:11;0.30;;;0.30;;
42614;SDS011;28754;47.700;7.924;2023-11-21T12:36:59;0.30;;;0.20;;
42614;SDS011;28754;47.700;7.924;2023-11-21T12:39:45;0.38;;;0.22;;
42614;SDS011;28754;47.700;7.924;2023-11-21T12:42:32;2.38;;;0.20;;
42614;SDS011;28754;47.700;7.924;2023-11-21T12:45:21;0.28;;;0.10;;
42614;SDS011;28754;47.700;7.924;2023-11-21T12:48:13;0.47;;;0.28;;
42614;SDS011;28754;47.700;7.924;2023-11-21T12:51:01;0.47;;;0.25;;
42614;SDS011;28754;47.700;7.924;2023-11-21T12:53:49;0.10;;;0.03;;
42614;SDS011;28754;47.700;7.924;2023-11-21T12:56:39;0.20;;;0.20;;
42614;SDS011;28754;47.700;7.924;2023-11-21T12:59:26;0.22;;;0.22;;
42614;SDS011;28754;47.700;7.924;2023-11-21T13:02:13;0.10;;;0.10;;
42614;SDS011;28754;47.700;7.924;2023-11-21T13:05:01;0.43;;;0.13;;
42614;SDS011;28754;47.700;7.924;2023-11-21T13:07:52;0.40;;;0.40;;
42614;SDS011;28754;47.700;7.924;2023-11-21T13:10:44;0.32;;;0.10;;
42614;SDS011;28754;47.700;7.924;2023-11-21T13:13:32;0.82;;;0.20;;
42614;SDS011;28754;47.700;7.924;2023-11-21T13:16:19;0.20;;;0.20;;
42614;SDS011;28754;47.700;7.924;2023-11-21T13:19:06;0.00;;;0.00;;
42614;SDS011;28754;47.700;7.924;2023-11-21T13:21:54;0.10;;;0.10;;
42614;SDS011;28754;47.700;7.924;2023-11-21T13:24:41;0.32;;;0.20;;
42614;SDS011;28754;47.700;7.924;2023-11-21T13:27:29;0.00;;;0.00;;
42614;SDS011;28754;47.700;7.924;2023-11-21T13:30:16;0.30;;;0.10;;
42614;SDS011;28754;47.700;7.924;2023-11-21T13:33:09;0.75;;;0.00;;
42614;SDS011;28754;47.700;7.924;2023-11-21T13:35:57;0.00;;;0.00;;
42614;SDS011;28754;47.700;7.924;2023-11-21T13:38:45;0.00;;;0.00;;
42614;SDS011;28754;47.700;7.924;2023-11-21T13:41:32;0.20;;;0.03;;
42614;SDS011;28754;47.700;7.924;2023-11-21T13:44:19;0.10;;;0.10;;
42614;SDS011;28754;47.700;7.924;2023-11-21T13:47:20;0.43;;;0.22;;
42614;SDS011;28754;47.700;7.924;2023-11-21T13:50:10;0.05;;;0.05;;
42614;SDS011;28754;47.700;7.924;2023-11-21T13:53:03;0.00;;;0.00;;
42614;SDS011;28754;47.700;7.924;2023-11-21T13:56:07;0.10;;;0.10;;
42614;SDS011;28754;47.700;7.924;2023-11-21T13:58:54;0.15;;;0.15;;
42614;SDS011;28754;47.700;7.924;2023-11-21T14:01:41;0.00;;;0.00;;
42614;SDS011;28754;47.700;7.924;2023-11-21T14:04:41;0.00;;;0.00;;
42614;SDS011;28754;47.700;7.924;2023-11-21T14:07:40;0.13;;;0.10;;
42614;SDS011;28754;47.700;7.924;2023-11-21T14:10:33;0.00;;;0.00;;
42614;SDS011;28754;47.700;7.924;2023-11-21T14:13:26;0.10;;;0.10;;
42614;SDS011;28754;47.700;7.924;2023-11-21T14:16:16;3.13;;;0.43;;
42614;SDS011;28754;47.700;7.924;2023-11-21T14:19:05;0.10;;;0.08;;
42614;SDS011;28754;47.700;7.924;2023-11-21T14:22:04;0.80;;;0.20;;
42614;SDS011;28754;47.700;7.924;2023-11-21T14:24:50;2.03;;;0.00;;
42614;SDS011;28754;47.700;7.924;2023-11-21T14:27:42;0.00;;;0.00;;
42614;SDS011;28754;47.700;7.924;2023-11-21T14:30:30;0.10;;;0.10;;
42614;SDS011;28754;47.700;7.924;2023-11-21T14:33:21;0.15;;;0.03;;
42614;SDS011;28754;47.700;7.924;2023-11-21T14:36:08;0.63;;;0.20;;
42614;SDS011;28754;47.700;7.924;2023-11-21T14:38:56;0.10;;;0.00;;
42614;SDS011;28754;47.700;7.924;2023-11-21T14:41:42;0.17;;;0.00;;
42614;SDS011;28754;47.700;7.924;2023-11-21T14:44:30;0.08;;;0.00;;
42614;SDS011;28754;47.700;7.924;2023-11-21T14:47:21;0.20;;;0.20;;
42614;SDS011;28754;47.700;7.924;2023-11-21T14:50:12;0.15;;;0.10;;
42614;SDS011;28754;47.700;7.924;2023-11-21T14:53:18;0.00;;;0.00;;
42614;SDS011;28754;47.700;7.924;2023-11-21T14:56:26;0.00;;;0.00;;
42614;SDS011;28754;47.700;7.924;2023-11-21T14:59:16;0.10;;;0.05;;
42614;SDS011;28754;47.700;7.924;2023-11-21T15:02:03;0.05;;;0.00;;
42614;SDS011;28754;47.700;7.924;2023-11-21T15:05:00;0.20;;;0.10;;
42614;SDS011;28754;47.700;7.924;2023-11-21T15:07:48;0.08;;;0.00;;
42614;SDS011;28754;47.700;7.924;2023-11-21T15:10:35;0.00;;;0.00;;
42614;SDS011;28754;47.700;7.924;2023-11-21T15:13:32;0.10;;;0.10;;
42614;SDS011;28754;47.700;7.924;2023-11-21T15:16:19;0.00;;;0.00;;
42614;SDS011;28754;47.700;7.924;2023-11-21T15:19:06;0.10;;;0.00;;
42614;SDS011;28754;47.700;7.924;2023-11-21T15:21:55;0.00;;;0.00;;
42614;SDS011;28754;47.700;7.924;2023-11-21T15:24:42;5.72;;;0.32;;
42614;SDS011;28754;47.700;7.924;2023-11-21T15:27:32;0.15;;;0.03;;
42614;SDS011;28754;47.700;7.924;2023-11-21T15:30:19;0.28;;;0.25;;
42614;SDS011;28754;47.700;7.924;2023-11-21T15:33:10;0.35;;;0.30;;
42614;SDS011;28754;47.700;7.924;2023-11-21T15:35:58;0.10;;;0.10;;
42614;SDS011;28754;47.700;7.924;2023-11-21T15:38:44;0.85;;;0.32;;
42614;SDS011;28754;47.700;7.924;2023-11-21T15:41:31;0.30;;;0.20;;
42614;SDS011;28754;47.700;7.924;2023-11-21T15:44:18;0.20;;;0.20;;
42614;SDS011;28754;47.700;7.924;2023-11-21T15:47:05;0.40;;;0.30;;
42614;SDS011;28754;47.700;7.924;2023-11-21T15:49:54;0.32;;;0.30;;
42614;SDS011;28754;47.700;7.924;2023-11-21T15:52:41;0.20;;;0.10;;
42614;SDS011;28754;47.700;7.924;2023-11-21T15:55:29;0.45;;;0.45;;
42614;SDS011;28754;47.700;7.924;2023-11-21T15:58:16;0.32;;;0.25;;
42614;SDS011;28754;47.700;7.924;2023-11-21T16:01:03;0.47;;;0.32;;
42614;SDS011;28754;47.700;7.924;2023-11-21T16:03:50;0.43;;;0.35;;
42614;SDS011;28754;47.700;7.924;2023-11-21T16:06:37;0.30;;;0.30;;
42614;SDS011;28754;47.700;7.924;2023-11-21T16:09:27;1.38;;;0.47;;
42614;SDS011;28754;47.700;7.924;2023-11-21T16:12:16;4.85;;;0.50;;
42614;SDS011;28754;47.700;7.924;2023-11-21T16:15:05;0.30;;;0.20;;
42614;SDS011;28754;47.700;7.924;2023-11-21T16:17:57;0.63;;;0.47;;
42614;SDS011;28754;47.700;7.924;2023-11-21T16:20:44;0.90;;;0.40;;
42614;SDS011;28754;47.700;7.924;2023-11-21T16:23:30;0.40;;;0.40;;
42614;SDS011;28754;47.700;7.924;2023-11-21T16:26:17;0.93;;;0.40;;
42614;SDS011;28754;47.700;7.924;2023-11-21T16:29:04;0.98;;;0.88;;
42614;SDS011;28754;47.700;7.924;2023-11-21T16:31:50;0.50;;;0.50;;
42614;SDS011;28754;47.700;7.924;2023-11-21T16:34:38;1.00;;;0.57;;
42614;SDS011;28754;47.700;7.924;2023-11-21T16:37:26;0.73;;;0.40;;
42614;SDS011;28754;47.700;7.924;2023-11-21T16:40:12;0.50;;;0.50;;
42614;SDS011;28754;47.700;7.924;2023-11-21T16:42:59;0.75;;;0.50;;
42614;SDS011;28754;47.700;7.924;2023-11-21T16:45:46;0.82;;;0.60;;
42614;SDS011;28754;47.700;7.924;2023-11-21T16:48:37;0.77;;;0.63;;
42614;SDS011;28754;47.700;7.924;2023-11-21T16:51:24;0.57;;;0.43;;
42614;SDS011;28754;47.700;7.924;2023-11-21T16:54:11;0.63;;;0.60;;
42614;SDS011;28754;47.700;7.924;2023-11-21T16:56:59;2.60;;;1.33;;
42614;SDS011;28754;47.700;7.924;2023-11-21T16:59:49;4.30;;;2.45;;
42614;SDS011;28754;47.700;7.924;2023-11-21T17:02:37;4.28;;;2.17;;
42614;SDS011;28754;47.700;7.924;2023-11-21T17:05:31;5.35;;;3.65;;
42614;SDS011;28754;47.700;7.924;2023-11-21T17:08:23;3.38;;;2.08;;
42614;SDS011;28754;47.700;7.924;2023-11-21T17:12:17;1.65;;;0.60;;
42614;SDS011;28754;47.700;7.924;2023-11-21T17:15:44;5.28;;;2.92;;